createdAt,value
2023-02-13T00:01:09.221Z,46.90
2023-02-13T00:03:40.357Z,36.10
2023-02-13T00:06:14.280Z,38.20
2023-02-13T00:08:42.075Z,39.63
2023-02-13T00:11:13.204Z,33.77
2023-02-13T00:13:41.712Z,47.23
2023-02-13T00:16:10.348Z,35.53
2023-02-13T00:18:42.583Z,34.80
2023-02-13T00:21:17.662Z,40.57
2023-02-13T00:23:51.882Z,36.33
2023-02-13T00:26:22.078Z,40.80
2023-02-13T00:28:52.700Z,33.63
2023-02-13T00:31:22.317Z,42.50
2023-02-13T00:33:51.142Z,35.70
2023-02-13T00:36:22.331Z,40.57
2023-02-13T00:38:53.839Z,42.10
2023-02-13T00:41:22.667Z,44.70
2023-02-13T00:43:50.783Z,36.03
2023-02-13T00:46:19.637Z,48.97
2023-02-13T00:48:48.798Z,43.30
2023-02-13T00:51:19.841Z,40.00
2023-02-13T00:53:48.607Z,52.00
2023-02-13T00:56:16.579Z,48.30
2023-02-13T00:58:43.948Z,57.53
2023-02-13T01:01:11.334Z,46.80
2023-02-13T01:03:38.687Z,45.57
2023-02-13T01:06:06.924Z,42.43
2023-02-13T01:08:34.685Z,47.80
2023-02-13T01:11:02.802Z,36.97
2023-02-13T01:13:30.113Z,42.23
2023-02-13T01:15:57.426Z,64.60
2023-02-13T01:18:24.917Z,49.90
2023-02-13T01:21:00.502Z,48.77
2023-02-13T01:23:31.039Z,54.67
2023-02-13T01:25:58.363Z,66.10
2023-02-13T01:28:26.443Z,60.23
2023-02-13T01:30:54.371Z,64.07
2023-02-13T01:33:22.287Z,62.93
2023-02-13T01:35:49.664Z,51.27
2023-02-13T01:38:16.951Z,52.30
2023-02-13T01:40:47.735Z,47.73
2023-02-13T01:43:15.158Z,60.60
2023-02-13T01:45:44.038Z,70.10
2023-02-13T01:48:16.045Z,56.43
2023-02-13T01:50:48.233Z,62.03
2023-02-13T01:53:23.609Z,63.77
2023-02-13T01:55:55.277Z,64.00
2023-02-13T01:58:27.572Z,68.90
2023-02-13T02:00:56.012Z,86.13
2023-02-13T02:03:27.725Z,73.10
2023-02-13T02:05:57.688Z,55.50
2023-02-13T02:08:25.380Z,69.83
2023-02-13T02:10:53.285Z,62.07
2023-02-13T02:13:21.744Z,71.70
2023-02-13T02:15:52.707Z,85.57
2023-02-13T02:18:22.533Z,59.43
2023-02-13T02:21:24.549Z,59.53
2023-02-13T02:24:33.212Z,91.13
2023-02-13T02:27:26.228Z,74.47
2023-02-13T02:30:41.877Z,68.17
2023-02-13T02:33:19.732Z,51.67
2023-02-13T02:35:58.514Z,67.97
2023-02-13T02:38:41.929Z,65.73
2023-02-13T02:41:35.829Z,59.10
2023-02-13T02:44:14.973Z,66.40
2023-02-13T02:47:10.858Z,59.17
2023-02-13T02:50:01.246Z,73.17
2023-02-13T02:52:42.438Z,68.23
2023-02-13T02:55:17.301Z,74.70
2023-02-13T02:58:08.603Z,68.77
2023-02-13T03:00:59.692Z,50.00
2023-02-13T03:03:46.899Z,82.07
2023-02-13T03:06:22.885Z,69.83
2023-02-13T03:09:12.950Z,76.43
2023-02-13T03:11:59.439Z,80.47
2023-02-13T03:14:27.955Z,66.43
2023-02-13T03:17:15.920Z,63.03
2023-02-13T03:20:13.817Z,73.07
2023-02-13T03:22:55.031Z,58.20
2023-02-13T03:25:33.473Z,66.83
2023-02-13T03:28:26.624Z,64.07
2023-02-13T03:31:01.807Z,53.47
2023-02-13T03:33:43.981Z,78.37
2023-02-13T03:36:37.455Z,56.90
2023-02-13T03:39:11.341Z,71.57
2023-02-13T03:41:42.666Z,56.13
2023-02-13T03:44:16.143Z,63.87
2023-02-13T03:46:47.268Z,59.87
2023-02-13T03:49:38.255Z,47.63
2023-02-13T03:52:10.879Z,48.33
2023-02-13T03:55:02.644Z,49.80
2023-02-13T03:57:50.102Z,41.70
2023-02-13T04:00:19.540Z,45.20
2023-02-13T04:02:58.316Z,45.80
2023-02-13T04:05:29.454Z,50.87
2023-02-13T04:07:56.678Z,50.90
2023-02-13T04:10:28.865Z,56.27
2023-02-13T04:13:05.252Z,39.63
2023-02-13T04:15:38.871Z,42.40
2023-02-13T04:18:10.861Z,49.77
2023-02-13T04:20:39.263Z,40.63
2023-02-13T04:23:08.431Z,53.53
2023-02-13T04:25:38.132Z,50.27
2023-02-13T04:28:05.794Z,58.90
2023-02-13T04:30:33.683Z,52.83
2023-02-13T04:33:01.342Z,46.70
2023-02-13T04:35:28.711Z,38.57
2023-02-13T04:37:56.029Z,43.53
2023-02-13T04:40:23.431Z,48.57
2023-02-13T04:42:51.392Z,52.63
2023-02-13T04:45:18.654Z,41.07
2023-02-13T04:47:51.545Z,35.77
2023-02-13T04:50:19.549Z,39.70
2023-02-13T04:52:47.003Z,33.33
2023-02-13T04:55:14.981Z,36.03
2023-02-13T04:57:42.221Z,37.27
2023-02-13T05:00:11.571Z,30.90
2023-02-13T05:02:39.709Z,40.83
2023-02-13T05:05:07.250Z,48.33
2023-02-13T05:07:34.574Z,56.00
2023-02-13T05:10:01.877Z,43.57
2023-02-13T05:12:29.218Z,38.70
2023-02-13T05:14:56.640Z,41.37
2023-02-13T05:17:27.260Z,38.30
2023-02-13T05:19:55.711Z,42.40
2023-02-13T05:22:41.829Z,58.33
2023-02-13T05:25:09.486Z,64.57
2023-02-13T05:27:36.781Z,50.13
2023-02-13T05:30:04.297Z,61.80
2023-02-13T05:32:32.257Z,43.90
2023-02-13T05:34:59.500Z,44.33
2023-02-13T05:37:26.856Z,46.33
2023-02-13T05:39:54.192Z,48.27
2023-02-13T05:42:21.657Z,54.87
2023-02-13T05:44:49.223Z,51.17
2023-02-13T05:47:16.582Z,52.73
2023-02-13T05:49:44.704Z,45.07
2023-02-13T05:52:12.408Z,58.33
2023-02-13T05:54:39.687Z,53.50
2023-02-13T05:57:06.936Z,57.30
2023-02-13T05:59:34.225Z,58.40
2023-02-13T06:02:01.484Z,54.10
2023-02-13T06:04:29.064Z,58.90
2023-02-13T06:06:57.197Z,55.87
2023-02-13T06:09:24.678Z,49.90
2023-02-13T06:11:52.198Z,50.00
2023-02-13T06:14:19.564Z,72.23
2023-02-13T06:16:46.870Z,53.27
2023-02-13T06:19:14.255Z,56.80
2023-02-13T06:21:41.699Z,63.97
2023-02-13T06:24:09.778Z,59.70
2023-02-13T06:26:36.997Z,81.83
2023-02-13T06:29:05.826Z,50.33
2023-02-13T06:31:34.275Z,77.07
2023-02-13T06:34:01.523Z,65.03
2023-02-13T06:36:29.033Z,61.03
2023-02-13T06:38:56.345Z,73.70
2023-02-13T06:41:24.390Z,70.67
2023-02-13T06:43:51.820Z,73.43
2023-02-13T06:46:19.133Z,74.43
2023-02-13T06:48:46.405Z,56.10
2023-02-13T06:51:13.655Z,52.23
2023-02-13T06:53:40.828Z,74.93
2023-02-13T06:56:10.463Z,61.87
2023-02-13T06:58:39.357Z,59.97
2023-02-13T07:01:06.883Z,56.43
2023-02-13T07:03:34.205Z,62.03
2023-02-13T07:06:01.504Z,55.27
2023-02-13T07:08:28.793Z,102.37
2023-02-13T07:10:56.397Z,76.83
2023-02-13T07:13:23.905Z,50.93
2023-02-13T07:15:52.172Z,55.53
2023-02-13T07:18:19.414Z,64.47
2023-02-13T07:20:46.723Z,60.90
2023-02-13T07:23:13.974Z,53.57
2023-02-13T07:25:41.263Z,53.53
2023-02-13T07:28:09.340Z,58.10
2023-02-13T07:30:36.689Z,68.67
2023-02-13T07:33:05.290Z,54.97
2023-02-13T07:35:32.796Z,60.23
2023-02-13T07:38:00.147Z,62.93
2023-02-13T07:40:27.567Z,65.90
2023-02-13T07:42:54.878Z,73.97
2023-02-13T07:45:22.161Z,53.87
2023-02-13T07:47:49.468Z,61.90
2023-02-13T07:50:17.683Z,54.27
2023-02-13T07:52:44.963Z,47.93
2023-02-13T07:55:12.219Z,46.33
2023-02-13T07:57:39.533Z,40.63
2023-02-13T08:00:08.189Z,44.33
2023-02-13T08:02:35.476Z,38.97
2023-02-13T08:05:02.800Z,42.63
2023-02-13T08:07:31.138Z,37.50
2023-02-13T08:10:25.140Z,40.77
2023-02-13T08:12:53.068Z,43.53
2023-02-13T08:15:20.493Z,37.50
2023-02-13T08:17:47.804Z,41.47
2023-02-13T08:20:15.270Z,47.53
2023-02-13T08:22:43.248Z,41.07
2023-02-13T08:25:10.697Z,36.87
2023-02-13T08:27:38.481Z,34.37
2023-02-13T08:30:06.950Z,35.00
2023-02-13T08:32:42.067Z,31.10
2023-02-13T08:35:15.747Z,26.80
2023-02-13T08:37:44.782Z,35.63
2023-02-13T08:40:13.901Z,29.27
2023-02-13T08:42:41.309Z,31.23
2023-02-13T08:45:10.985Z,26.43
2023-02-13T08:47:39.052Z,30.67
2023-02-13T08:50:07.567Z,27.20
2023-02-13T08:52:35.088Z,31.73
2023-02-13T08:55:03.206Z,37.87
2023-02-13T08:57:30.950Z,40.47
2023-02-13T08:59:58.248Z,32.90
2023-02-13T09:02:25.551Z,27.20
2023-02-13T09:04:52.848Z,35.40
2023-02-13T09:07:20.120Z,28.47
2023-02-13T09:09:47.705Z,27.23
2023-02-13T09:12:15.678Z,23.07
2023-02-13T09:14:43.142Z,31.40
2023-02-13T09:17:10.473Z,26.73
2023-02-13T09:19:37.773Z,30.13
2023-02-13T09:22:05.046Z,25.20
2023-02-13T09:24:32.387Z,23.80
2023-02-13T09:26:59.871Z,24.13
2023-02-13T09:29:30.704Z,26.70
2023-02-13T09:31:58.095Z,29.23
2023-02-13T09:34:25.906Z,27.47
2023-02-13T09:36:53.436Z,27.90
2023-02-13T09:39:20.961Z,28.10
2023-02-13T09:41:50.204Z,29.77
2023-02-13T09:44:38.368Z,28.60
2023-02-13T09:47:13.865Z,23.07
2023-02-13T09:49:45.454Z,32.60
2023-02-13T09:52:12.814Z,29.07
2023-02-13T09:54:40.185Z,36.27
2023-02-13T09:57:16.500Z,31.27
2023-02-13T09:59:56.352Z,26.90
2023-02-13T10:02:45.305Z,22.03
2023-02-13T10:05:26.849Z,33.37
2023-02-13T10:08:01.329Z,34.10
2023-02-13T10:10:34.224Z,27.33
2023-02-13T10:13:13.999Z,30.43
2023-02-13T10:15:48.619Z,28.03
2023-02-13T10:18:19.517Z,29.93
2023-02-13T10:20:51.526Z,26.33
2023-02-13T10:23:24.383Z,24.77
2023-02-13T10:25:57.392Z,18.53
2023-02-13T10:28:32.251Z,24.77
2023-02-13T10:31:05.736Z,26.63
2023-02-13T10:33:38.816Z,32.80
2023-02-13T10:36:12.591Z,25.97
2023-02-13T10:38:44.464Z,17.53
2023-02-13T10:41:24.212Z,20.50
2023-02-13T10:44:01.864Z,24.73
2023-02-13T10:46:41.160Z,21.60
2023-02-13T10:49:37.586Z,32.23
2023-02-13T10:52:16.650Z,36.53
2023-02-13T10:55:03.031Z,31.00
2023-02-13T10:57:47.253Z,20.23
2023-02-13T11:00:22.977Z,26.60
2023-02-13T11:02:50.464Z,15.37
2023-02-13T11:05:22.326Z,15.30
2023-02-13T11:07:49.825Z,16.53
2023-02-13T11:10:20.006Z,18.57
2023-02-13T11:12:47.582Z,17.07
2023-02-13T11:15:26.806Z,18.40
2023-02-13T11:17:57.028Z,16.07
2023-02-13T11:20:34.968Z,16.90
2023-02-13T11:23:35.149Z,18.53
2023-02-13T11:26:06.962Z,16.80
2023-02-13T11:28:38.167Z,14.73
2023-02-13T11:31:18.842Z,18.80
2023-02-13T11:33:46.199Z,16.63
2023-02-13T11:36:17.483Z,14.40
2023-02-13T11:38:44.994Z,19.23
2023-02-13T11:41:14.086Z,29.60
2023-02-13T11:43:47.513Z,11.60
2023-02-13T11:46:19.787Z,16.60
2023-02-13T11:48:58.759Z,14.43
2023-02-13T11:51:44.555Z,14.30
2023-02-13T11:54:27.120Z,15.23
2023-02-13T11:57:05.504Z,14.23
2023-02-13T11:59:40.511Z,14.37
2023-02-13T12:02:17.233Z,14.83
2023-02-13T12:04:45.434Z,15.33
2023-02-13T12:07:20.202Z,15.10
2023-02-13T12:09:51.074Z,13.90
2023-02-13T12:12:25.466Z,15.70
2023-02-13T12:14:53.019Z,13.90
2023-02-13T12:17:31.253Z,18.97
2023-02-13T12:19:59.794Z,13.17
2023-02-13T12:22:46.443Z,13.40
2023-02-13T12:25:40.429Z,13.13
2023-02-13T12:28:13.226Z,14.30
2023-02-13T12:31:23.329Z,12.90
2023-02-13T12:34:25.893Z,13.30
2023-02-13T12:37:05.869Z,16.93
2023-02-13T12:39:35.180Z,22.63
2023-02-13T12:42:27.952Z,13.53
2023-02-13T12:45:15.650Z,11.30
2023-02-13T12:47:57.096Z,14.93
2023-02-13T12:50:43.845Z,13.93
2023-02-13T12:53:30.471Z,10.97
2023-02-13T12:56:42.831Z,9.20
2023-02-13T12:59:13.816Z,9.93
2023-02-13T13:02:17.005Z,10.40
2023-02-13T13:04:56.339Z,14.33
2023-02-13T13:07:47.394Z,13.27
2023-02-13T13:10:33.257Z,9.90
2023-02-13T13:13:10.966Z,10.37
2023-02-13T13:15:47.629Z,11.60
2023-02-13T13:18:27.315Z,12.03
2023-02-13T13:21:14.168Z,11.90
2023-02-13T13:23:49.080Z,11.60
2023-02-13T13:26:26.817Z,12.90
2023-02-13T13:28:58.423Z,11.73
2023-02-13T13:31:28.082Z,13.73
2023-02-13T13:34:00.336Z,19.00
2023-02-13T13:36:36.791Z,15.00
2023-02-13T13:39:13.296Z,20.43
2023-02-13T13:41:47.727Z,13.90
2023-02-13T13:44:41.877Z,16.10
2023-02-13T13:47:20.352Z,20.20
2023-02-13T13:49:53.572Z,15.03
2023-02-13T13:52:24.729Z,20.03
2023-02-13T13:54:53.101Z,12.03
2023-02-13T13:57:21.261Z,18.30
2023-02-13T14:00:16.354Z,16.90
2023-02-13T14:02:46.720Z,18.67
2023-02-13T14:05:27.629Z,21.27
2023-02-13T14:07:57.333Z,19.40
2023-02-13T14:11:06.410Z,21.50
2023-02-13T14:13:36.793Z,21.43
2023-02-13T14:16:09.577Z,25.80
2023-02-13T14:18:38.066Z,31.20
2023-02-13T14:21:06.030Z,43.17
2023-02-13T14:23:49.480Z,29.13
2023-02-13T14:26:37.370Z,23.97
2023-02-13T14:29:25.579Z,20.87
2023-02-13T14:32:02.286Z,21.23
2023-02-13T14:34:32.479Z,24.80
2023-02-13T14:37:29.395Z,15.27
2023-02-13T14:40:30.578Z,19.70
2023-02-13T14:43:01.160Z,66.10
2023-02-13T14:45:32.235Z,26.50
2023-02-13T14:48:06.477Z,23.43
2023-02-13T14:50:45.502Z,24.10
2023-02-13T14:53:21.167Z,23.63
2023-02-13T14:55:55.881Z,20.53
2023-02-13T14:58:28.313Z,18.87
2023-02-13T15:01:00.450Z,18.80
2023-02-13T15:03:35.931Z,22.50
2023-02-13T15:06:10.579Z,18.20
2023-02-13T15:08:45.293Z,20.27
2023-02-13T15:11:35.119Z,19.77
2023-02-13T15:14:20.361Z,18.00
2023-02-13T15:16:51.550Z,19.03
2023-02-13T15:19:22.067Z,17.53
2023-02-13T15:21:53.918Z,19.20
2023-02-13T15:24:25.372Z,22.50
2023-02-13T15:27:01.592Z,17.70
2023-02-13T15:29:40.929Z,23.60
2023-02-13T15:32:20.715Z,15.87
2023-02-13T15:34:50.617Z,18.23
2023-02-13T15:37:22.576Z,19.13
2023-02-13T15:39:49.963Z,19.17
2023-02-13T15:42:17.452Z,18.60
2023-02-13T15:44:48.007Z,22.80
2023-02-13T15:47:23.386Z,24.80
2023-02-13T15:49:51.906Z,19.80
2023-02-13T15:52:22.690Z,20.57
2023-02-13T15:54:51.224Z,20.77
2023-02-13T15:57:19.619Z,21.80
2023-02-13T15:59:47.611Z,19.13
2023-02-13T16:02:18.323Z,20.57
2023-02-13T16:04:47.661Z,23.77
2023-02-13T16:07:16.390Z,24.53
2023-02-13T16:09:44.583Z,21.47
2023-02-13T16:12:21.190Z,20.00
2023-02-13T16:14:54.059Z,21.30
2023-02-13T16:17:28.824Z,21.77
2023-02-13T16:20:00.210Z,17.30
2023-02-13T16:22:35.117Z,19.90
2023-02-13T16:25:17.506Z,21.87
2023-02-13T16:27:46.832Z,21.20
2023-02-13T16:30:25.932Z,20.17
2023-02-13T16:33:08.362Z,19.97
2023-02-13T16:35:39.292Z,24.77
2023-02-13T16:38:33.139Z,23.50
2023-02-13T16:41:01.904Z,23.47
2023-02-13T16:43:44.256Z,22.20
2023-02-13T16:46:22.432Z,23.53
2023-02-13T16:49:14.264Z,21.90
2023-02-13T16:51:45.131Z,23.53
2023-02-13T16:54:21.171Z,21.47
2023-02-13T16:56:51.238Z,25.20
2023-02-13T16:59:35.961Z,28.97
2023-02-13T17:02:22.489Z,26.70
2023-02-13T17:04:52.393Z,27.20
2023-02-13T17:07:22.492Z,31.60
2023-02-13T17:09:59.028Z,58.07
2023-02-13T17:12:28.172Z,30.60
2023-02-13T17:14:57.106Z,30.97
2023-02-13T17:17:27.004Z,25.97
2023-02-13T17:19:54.499Z,26.90
2023-02-13T17:22:29.589Z,27.00
2023-02-13T17:24:57.933Z,26.90
2023-02-13T17:27:25.548Z,31.30
2023-02-13T17:29:53.011Z,28.17
2023-02-13T17:32:22.998Z,22.63
2023-02-13T17:34:50.359Z,31.43
2023-02-13T17:37:20.119Z,29.47
2023-02-13T17:39:48.118Z,33.50
2023-02-13T17:42:23.327Z,26.87
2023-02-13T17:44:50.882Z,28.40
2023-02-13T17:47:19.320Z,27.07
2023-02-13T17:49:47.274Z,26.80
2023-02-13T17:52:17.874Z,29.63
2023-02-13T17:54:47.020Z,26.23
2023-02-13T17:57:15.806Z,26.13
2023-02-13T17:59:44.193Z,26.77
2023-02-13T18:02:14.029Z,31.33
2023-02-13T18:04:41.417Z,31.17
2023-02-13T18:07:10.209Z,28.93
2023-02-13T18:09:39.804Z,30.17
2023-02-13T18:12:08.021Z,27.23
2023-02-13T18:14:35.680Z,26.67
2023-02-13T18:17:03.957Z,28.40
2023-02-13T18:19:31.322Z,35.40
2023-02-13T18:21:58.788Z,32.97
2023-02-13T18:24:29.441Z,34.27
2023-02-13T18:26:56.944Z,30.90
2023-02-13T18:29:25.030Z,29.13
2023-02-13T18:31:52.712Z,34.40
2023-02-13T18:34:21.300Z,29.20
2023-02-13T18:36:49.129Z,30.93
2023-02-13T18:39:17.441Z,29.30
2023-02-13T18:41:45.478Z,27.20
2023-02-13T18:44:23.324Z,33.37
2023-02-13T18:46:55.746Z,31.57
2023-02-13T18:49:24.630Z,30.83
2023-02-13T18:51:52.717Z,27.67
2023-02-13T18:54:21.523Z,26.33
2023-02-13T18:56:49.379Z,63.90
2023-02-13T18:59:19.158Z,65.50
2023-02-13T19:01:46.823Z,47.80
2023-02-13T19:04:14.536Z,57.13
2023-02-13T19:06:44.034Z,42.63
2023-02-13T19:09:12.816Z,35.77
2023-02-13T19:11:43.873Z,37.50
2023-02-13T19:14:16.254Z,52.13
2023-02-13T19:16:43.817Z,61.63
2023-02-13T19:19:12.360Z,57.43
2023-02-13T19:21:40.043Z,33.70
2023-02-13T19:24:10.846Z,30.40
2023-02-13T19:26:38.500Z,23.63
2023-02-13T19:29:06.333Z,22.57
2023-02-13T19:31:34.105Z,21.03
2023-02-13T19:34:03.726Z,19.67
2023-02-13T19:36:31.438Z,16.43
2023-02-13T19:39:02.225Z,21.03
2023-02-13T19:41:32.355Z,26.10
2023-02-13T19:44:00.636Z,24.27
2023-02-13T19:46:31.018Z,20.57
2023-02-13T19:48:59.547Z,20.03
2023-02-13T19:51:29.541Z,24.53
2023-02-13T19:54:02.885Z,20.07
2023-02-13T19:56:32.999Z,24.23
2023-02-13T19:59:00.848Z,86.70
2023-02-13T20:01:29.898Z,39.33
2023-02-13T20:03:57.965Z,20.60
2023-02-13T20:06:31.166Z,23.83
2023-02-13T20:09:01.126Z,26.20
2023-02-13T20:11:29.457Z,18.70
2023-02-13T20:14:00.102Z,29.03
2023-02-13T20:16:32.327Z,22.70
2023-02-13T20:19:03.294Z,27.23
2023-02-13T20:21:33.113Z,24.30
2023-02-13T20:24:02.340Z,15.77
2023-02-13T20:26:30.577Z,19.90
2023-02-13T20:28:59.714Z,49.83
2023-02-13T20:31:29.227Z,33.10
2023-02-13T20:33:57.839Z,47.47
2023-02-13T20:36:34.848Z,38.77
2023-02-13T20:39:04.494Z,55.63
2023-02-13T20:41:33.991Z,31.13
2023-02-13T20:44:05.967Z,32.50
2023-02-13T20:46:35.457Z,37.17
2023-02-13T20:49:03.729Z,24.90
2023-02-13T20:51:31.684Z,29.43
2023-02-13T20:54:01.562Z,28.80
2023-02-13T20:56:29.859Z,29.30
2023-02-13T20:59:00.801Z,29.80
2023-02-13T21:01:31.873Z,30.80
2023-02-13T21:04:00.326Z,30.80
2023-02-13T21:06:30.547Z,30.27
2023-02-13T21:08:58.383Z,34.70
2023-02-13T21:11:27.768Z,34.57
2023-02-13T21:13:55.789Z,29.30
2023-02-13T21:16:28.763Z,36.17
2023-02-13T21:18:58.912Z,33.00
2023-02-13T21:21:28.421Z,43.23
2023-02-13T21:23:57.527Z,41.47
2023-02-13T21:26:25.752Z,34.40
2023-02-13T21:28:53.659Z,30.67
2023-02-13T21:31:25.040Z,29.37
2023-02-13T21:33:53.680Z,31.13
2023-02-13T21:36:21.499Z,32.57
2023-02-13T21:38:49.035Z,32.83
2023-02-13T21:41:18.384Z,33.13
2023-02-13T21:43:47.617Z,32.07
2023-02-13T21:46:17.206Z,31.70
2023-02-13T21:48:45.391Z,31.27
2023-02-13T21:51:16.225Z,31.90
2023-02-13T21:53:44.797Z,30.17
2023-02-13T21:56:15.395Z,32.40
2023-02-13T21:58:44.005Z,32.03
2023-02-13T22:01:20.565Z,35.83
2023-02-13T22:03:53.102Z,35.40
2023-02-13T22:06:21.176Z,43.33
2023-02-13T22:08:49.126Z,38.07
2023-02-13T22:11:17.575Z,35.37
2023-02-13T22:13:44.928Z,39.27
2023-02-13T22:16:14.118Z,35.20
2023-02-13T22:18:42.983Z,36.23
2023-02-13T22:21:12.844Z,31.27
2023-02-13T22:23:42.183Z,33.83
2023-02-13T22:26:19.638Z,37.27
2023-02-13T22:28:47.903Z,33.07
2023-02-13T22:31:16.548Z,28.47
2023-02-13T22:33:47.596Z,35.03
2023-02-13T22:36:21.590Z,32.30
2023-02-13T22:38:50.881Z,33.87
2023-02-13T22:41:20.995Z,35.10
2023-02-13T22:43:48.822Z,34.83
2023-02-13T22:46:18.671Z,44.27
2023-02-13T22:48:46.271Z,35.13
2023-02-13T22:51:16.210Z,34.43
2023-02-13T22:53:43.969Z,38.87
2023-02-13T22:56:12.949Z,36.80
2023-02-13T22:58:40.415Z,35.80
2023-02-13T23:01:12.060Z,45.53
2023-02-13T23:03:39.665Z,36.70
2023-02-13T23:06:08.700Z,51.63
2023-02-13T23:08:36.350Z,45.67
2023-02-13T23:11:24.382Z,39.83
2023-02-13T23:13:52.615Z,37.07
2023-02-13T23:16:20.104Z,36.77
2023-02-13T23:18:51.500Z,39.30
2023-02-13T23:21:18.999Z,35.07
2023-02-13T23:23:46.318Z,39.40
2023-02-13T23:26:14.050Z,31.27
2023-02-13T23:28:41.546Z,32.20
2023-02-13T23:31:09.813Z,39.00
2023-02-13T23:33:37.329Z,42.53
2023-02-13T23:36:05.219Z,35.97
2023-02-13T23:38:32.553Z,39.20
2023-02-13T23:41:07.213Z,35.90
2023-02-13T23:43:34.681Z,37.67
2023-02-13T23:46:03.592Z,39.70
2023-02-13T23:48:31.953Z,45.83
2023-02-13T23:50:59.612Z,46.60
2023-02-13T23:53:27.252Z,46.80
2023-02-13T23:55:54.562Z,46.40
2023-02-13T23:58:21.925Z,41.73
